Time;durP1;ratioP1;P1;durP2;ratioP2;P2;SDS_P1;SDS_P2;PMS_P1;PMS_P2;Temp;Humidity;BMP_temperature;BMP_pressure;BME280_temperature;BME280_humidity;BME280_pressure;Samples;Min_cycle;Max_cycle;Signal;HPM_P1;HPM_P2
2022/06/15 00:01:06;;;;;;;6.43;5.83;;;16.80;99.90;;;;;;4983591;28;20547;-66
2022/06/15 00:03:34;;;;;;;7.63;6.33;;;16.80;99.90;;;;;;4982741;28;21050;-65
2022/06/15 00:06:09;;;;;;;7.60;7.00;;;16.80;99.90;;;;;;4970183;28;20430;-64
2022/06/15 00:08:35;;;;;;;7.93;6.10;;;16.70;99.90;;;;;;4976837;28;20470;-65
2022/06/15 00:11:10;;;;;;;7.77;5.37;;;16.60;99.90;;;;;;4982222;28;20971;-65
2022/06/15 00:13:35;;;;;;;6.90;5.70;;;16.60;99.90;;;;;;4976200;28;20290;-65
2022/06/15 00:16:03;;;;;;;7.37;6.67;;;16.50;99.90;;;;;;4973138;28;20530;-66
2022/06/15 00:18:29;;;;;;;7.33;6.50;;;16.50;99.90;;;;;;4972112;28;20721;-66
2022/06/15 00:20:57;;;;;;;7.57;6.33;;;16.60;99.90;;;;;;4983540;28;20513;-66
2022/06/15 00:23:23;;;;;;;8.80;6.60;;;16.50;99.90;;;;;;4984803;28;20463;-66
2022/06/15 00:25:50;;;;;;;7.13;6.43;;;16.50;99.90;;;;;;4977829;28;20458;-66
2022/06/15 00:28:16;;;;;;;6.70;6.13;;;16.50;99.90;;;;;;4985633;28;20833;-65
2022/06/15 00:30:41;;;;;;;10.00;6.60;;;16.40;99.90;;;;;;4981622;28;20448;-65
2022/06/15 00:33:07;;;;;;;7.13;6.37;;;16.40;99.90;;;;;;4973723;28;20295;-66
2022/06/15 00:35:32;;;;;;;10.00;7.73;;;16.40;99.90;;;;;;4973296;28;20636;-65
2022/06/15 00:37:58;;;;;;;9.30;7.43;;;16.40;99.90;;;;;;4972578;28;20267;-65
2022/06/15 00:40:23;;;;;;;6.70;6.20;;;16.40;99.90;;;;;;4971150;28;20189;-66
2022/06/15 00:42:49;;;;;;;7.90;6.73;;;16.30;99.90;;;;;;4972673;28;20223;-65
2022/06/15 00:45:14;;;;;;;6.83;6.30;;;16.20;99.90;;;;;;4973034;28;20188;-65
2022/06/15 00:47:43;;;;;;;7.77;6.80;;;16.10;99.90;;;;;;4972825;28;20184;-65
2022/06/15 00:50:20;;;;;;;7.60;7.07;;;16.00;99.90;;;;;;4971536;28;20180;-64
2022/06/15 00:52:57;;;;;;;7.17;6.20;;;15.90;99.90;;;;;;4971583;28;20482;-65
2022/06/15 00:55:27;;;;;;;8.03;6.90;;;15.80;99.90;;;;;;4972681;28;20502;-65
2022/06/15 00:57:54;;;;;;;7.67;6.87;;;15.90;99.90;;;;;;4971820;28;20517;-66
2022/06/15 01:00:20;;;;;;;8.20;7.40;;;15.80;99.90;;;;;;4972401;28;20439;-66
2022/06/15 01:02:46;;;;;;;7.80;7.10;;;15.80;99.90;;;;;;4969814;28;20545;-66
2022/06/15 01:05:27;;;;;;;6.90;6.30;;;15.70;99.90;;;;;;4972858;28;20945;-65
2022/06/15 01:08:07;;;;;;;12.77;8.00;;;15.70;99.90;;;;;;4972242;28;20550;-64
2022/06/15 01:10:39;;;;;;;8.50;7.03;;;15.80;99.90;;;;;;4972410;28;20435;-65
2022/06/15 01:13:18;;;;;;;7.77;7.00;;;15.80;99.90;;;;;;4971435;28;20455;-65
2022/06/15 01:16:03;;;;;;;6.93;6.10;;;15.80;99.90;;;;;;4971522;28;20439;-66
2022/06/15 01:18:36;;;;;;;8.67;6.53;;;15.80;99.90;;;;;;4971361;28;20486;-66
2022/06/15 01:21:18;;;;;;;8.60;7.80;;;15.80;99.90;;;;;;4967256;28;20519;-66
2022/06/15 01:24:10;;;;;;;7.87;6.20;;;15.70;99.90;;;;;;4971257;28;20474;-65
2022/06/15 01:27:02;;;;;;;8.23;6.07;;;15.80;99.90;;;;;;4969516;28;20999;-66
2022/06/15 01:29:39;;;;;;;8.23;7.30;;;15.90;99.90;;;;;;4972015;28;20435;-66
2022/06/15 01:32:12;;;;;;;8.33;7.47;;;15.80;99.90;;;;;;4971499;28;20526;-65
2022/06/15 01:34:49;;;;;;;6.90;6.30;;;15.60;99.90;;;;;;4971892;28;20824;-66
2022/06/15 01:37:17;;;;;;;6.57;6.07;;;15.60;99.90;;;;;;4972609;28;20554;-66
2022/06/15 01:39:51;;;;;;;7.47;6.87;;;15.40;99.90;;;;;;4971615;28;20439;-64
2022/06/15 01:42:29;;;;;;;6.50;5.90;;;15.40;99.90;;;;;;4971265;28;20455;-63
2022/06/15 01:45:04;;;;;;;6.43;5.63;;;15.40;99.90;;;;;;4970638;28;20495;-65
2022/06/15 01:47:33;;;;;;;7.43;5.87;;;15.50;99.90;;;;;;4971045;28;20442;-64
2022/06/15 01:50:05;;;;;;;6.43;5.83;;;15.50;99.90;;;;;;4970658;28;20446;-65
2022/06/15 01:52:40;;;;;;;7.37;6.67;;;15.50;99.90;;;;;;4971748;28;20514;-66
2022/06/15 01:55:11;;;;;;;6.33;5.73;;;15.50;99.90;;;;;;4970487;28;20434;-65
2022/06/15 01:57:38;;;;;;;7.90;5.50;;;15.40;99.90;;;;;;4971546;28;20522;-66
2022/06/15 02:00:10;;;;;;;5.80;5.37;;;15.40;99.90;;;;;;4971237;28;20916;-65
2022/06/15 02:02:58;;;;;;;7.03;6.23;;;15.20;99.90;;;;;;4972504;28;20463;-66
2022/06/15 02:05:48;;;;;;;6.27;5.77;;;15.00;99.90;;;;;;4971645;28;20444;-65
2022/06/15 02:08:18;;;;;;;5.97;5.37;;;14.90;99.90;;;;;;4971129;28;20436;-65
2022/06/15 02:11:12;;;;;;;6.17;5.67;;;15.00;99.90;;;;;;4969877;28;20668;-65
2022/06/15 02:14:00;;;;;;;6.70;6.17;;;15.10;99.90;;;;;;4971482;28;20459;-65
2022/06/15 02:16:40;;;;;;;6.50;5.87;;;15.20;99.90;;;;;;4970437;28;20879;-65
2022/06/15 02:19:09;;;;;;;6.37;5.77;;;15.20;99.90;;;;;;4969084;28;20435;-65
2022/06/15 02:21:38;;;;;;;7.03;5.67;;;15.20;99.90;;;;;;4971164;28;20979;-65
2022/06/15 02:24:05;;;;;;;6.63;6.07;;;15.20;99.90;;;;;;4966934;28;20494;-65
2022/06/15 02:26:33;;;;;;;5.87;5.27;;;15.20;99.90;;;;;;4970227;28;20436;-65
2022/06/15 02:29:15;;;;;;;7.70;5.93;;;15.10;99.90;;;;;;4970996;28;20546;-65
2022/06/15 02:31:41;;;;;;;6.67;5.20;;;15.10;99.90;;;;;;4980140;28;20471;-66
2022/06/15 02:34:07;;;;;;;7.97;6.63;;;15.00;99.90;;;;;;4968241;28;21336;-65
2022/06/15 02:36:33;;;;;;;6.73;6.03;;;15.00;99.90;;;;;;4972049;28;20522;-65
2022/06/15 02:39:01;;;;;;;5.90;5.30;;;14.90;99.90;;;;;;4968927;28;20188;-65
2022/06/15 02:41:27;;;;;;;6.73;6.23;;;14.80;99.90;;;;;;4970235;28;20436;-64
2022/06/15 02:43:57;;;;;;;7.93;5.70;;;14.80;99.90;;;;;;4970809;28;21062;-64
2022/06/15 02:46:24;;;;;;;9.93;6.27;;;14.80;99.90;;;;;;4970415;28;20451;-66
2022/06/15 02:48:50;;;;;;;6.20;5.70;;;14.70;99.90;;;;;;4970732;28;20450;-65
2022/06/15 02:51:39;;;;;;;6.17;5.57;;;14.80;99.90;;;;;;4974320;28;20538;-65
2022/06/15 02:54:19;;;;;;;6.40;5.90;;;14.70;99.90;;;;;;4959871;28;20541;-65
2022/06/15 02:56:45;;;;;;;6.40;5.90;;;14.70;99.90;;;;;;4966583;28;20446;-64
2022/06/15 02:59:11;;;;;;;7.43;6.50;;;14.70;99.90;;;;;;4970188;28;20443;-65
2022/06/15 03:01:36;;;;;;;5.47;4.97;;;14.60;99.90;;;;;;4970725;28;20184;-65
2022/06/15 03:04:02;;;;;;;6.23;5.63;;;14.60;99.90;;;;;;4971412;28;20207;-66
2022/06/15 03:06:28;;;;;;;6.87;5.37;;;14.50;99.90;;;;;;4970042;28;20187;-65
2022/06/15 03:08:56;;;;;;;6.00;5.50;;;14.50;99.90;;;;;;4969718;28;21336;-65
2022/06/15 03:11:24;;;;;;;5.97;5.47;;;14.50;99.90;;;;;;4971869;28;20215;-65
2022/06/15 03:13:50;;;;;;;6.00;5.50;;;14.50;99.90;;;;;;4978916;28;20549;-65
2022/06/15 03:16:15;;;;;;;8.70;5.40;;;14.50;99.90;;;;;;4970275;28;20586;-63
2022/06/15 03:18:41;;;;;;;6.33;5.80;;;14.50;99.90;;;;;;4968658;28;20526;-66
2022/06/15 03:21:06;;;;;;;7.00;6.40;;;14.40;99.90;;;;;;4970800;28;20315;-65
2022/06/15 03:23:32;;;;;;;9.63;6.37;;;14.40;99.90;;;;;;4969999;28;20271;-64
2022/06/15 03:26:00;;;;;;;6.30;5.80;;;14.30;99.90;;;;;;4967021;28;20191;-65
2022/06/15 03:28:25;;;;;;;7.70;6.87;;;14.30;99.90;;;;;;4970423;28;20184;-66
2022/06/15 03:30:52;;;;;;;6.53;5.93;;;14.30;99.90;;;;;;4970632;28;20570;-66
2022/06/15 03:33:18;;;;;;;6.90;6.40;;;14.20;99.90;;;;;;4969682;28;20199;-64
2022/06/15 03:35:44;;;;;;;7.20;6.50;;;14.20;99.90;;;;;;4969725;28;20526;-64
2022/06/15 03:38:10;;;;;;;7.43;6.83;;;14.20;99.90;;;;;;4969209;28;20439;-63
2022/06/15 03:40:45;;;;;;;7.60;7.00;;;14.20;99.90;;;;;;4969239;28;20438;-66
2022/06/15 03:43:11;;;;;;;7.27;6.30;;;14.20;99.90;;;;;;4969989;28;20470;-66
2022/06/15 03:45:37;;;;;;;7.17;6.57;;;14.30;99.90;;;;;;4970485;28;20791;-65
2022/06/15 03:48:03;;;;;;;9.37;8.40;;;14.40;99.90;;;;;;4969537;28;20506;-65
2022/06/15 03:50:31;;;;;;;11.33;8.40;;;14.40;99.90;;;;;;4970641;28;20952;-65
2022/06/15 03:52:57;;;;;;;12.50;9.30;;;14.60;99.90;;;;;;4973502;28;20470;-65
2022/06/15 03:55:23;;;;;;;7.40;6.80;;;14.70;99.90;;;;;;4973146;28;20659;-65
2022/06/15 03:57:49;;;;;;;8.33;5.73;;;14.90;99.90;;;;;;4973127;28;20549;-65
2022/06/15 04:00:18;;;;;;;8.07;7.30;;;15.00;99.90;;;;;;4973604;28;20191;-65
2022/06/15 04:02:45;;;;;;;8.00;7.20;;;15.10;99.90;;;;;;4973858;28;20240;-65
2022/06/15 04:05:16;;;;;;;9.40;7.40;;;15.10;99.90;;;;;;4971739;28;20506;-64
2022/06/15 04:10:26;;;;;;;7.93;6.43;;;15.30;99.90;;;;;;4973754;28;20447;-65
2022/06/15 04:12:52;;;;;;;9.83;6.37;;;15.40;99.90;;;;;;4973505;28;20830;-65
2022/06/15 04:15:17;;;;;;;7.00;6.30;;;15.50;99.90;;;;;;4972694;28;20195;-66
2022/06/15 04:17:44;;;;;;;7.10;6.50;;;15.70;99.90;;;;;;4980588;28;20188;-65
2022/06/15 04:23:09;;;;;;;6.80;6.20;;;15.90;99.90;;;;;;4972759;28;20470;-66
2022/06/15 04:25:48;;;;;;;6.27;5.70;;;16.00;99.90;;;;;;4972811;28;20513;-65
2022/06/15 04:28:15;;;;;;;7.80;6.50;;;16.10;99.90;;;;;;4973209;28;20887;-65
2022/06/15 04:30:41;;;;;;;7.80;6.73;;;16.30;99.90;;;;;;4971919;28;20443;-65
2022/06/15 04:33:09;;;;;;;12.60;10.23;;;16.40;99.90;;;;;;4973559;28;20909;-64
2022/06/15 04:35:35;;;;;;;11.17;8.90;;;16.50;99.90;;;;;;4972310;28;20446;-65
2022/06/15 04:38:00;;;;;;;8.80;7.70;;;16.70;99.90;;;;;;4970607;28;20455;-65
2022/06/15 04:40:26;;;;;;;6.40;5.77;;;16.80;99.90;;;;;;4970937;28;20196;-65
2022/06/15 04:42:52;;;;;;;7.67;6.00;;;17.00;99.90;;;;;;4972787;28;20231;-65
2022/06/15 04:45:18;;;;;;;7.13;6.07;;;17.10;99.90;;;;;;4972299;28;20552;-65
2022/06/15 04:47:44;;;;;;;6.70;6.10;;;17.10;99.90;;;;;;4972061;28;20661;-65
2022/06/15 04:50:13;;;;;;;6.73;6.10;;;17.20;99.90;;;;;;4970579;28;20449;-65
2022/06/15 04:52:41;;;;;;;6.87;6.13;;;17.30;99.90;;;;;;4972479;28;20440;-65
2022/06/15 04:55:08;;;;;;;6.83;6.13;;;17.40;99.90;;;;;;4973262;28;20456;-66
2022/06/15 04:57:33;;;;;;;6.47;5.87;;;17.50;99.90;;;;;;4971114;28;20443;-65
2022/06/15 04:59:59;;;;;;;9.53;7.03;;;17.70;99.90;;;;;;4971306;28;20442;-66
2022/06/15 05:02:24;;;;;;;7.67;7.03;;;17.80;99.90;;;;;;4970358;28;20220;-65
2022/06/15 05:04:50;;;;;;;7.33;5.93;;;18.00;99.90;;;;;;4968972;28;20207;-65
2022/06/15 05:07:15;;;;;;;6.77;5.57;;;18.30;99.90;;;;;;4973495;28;20185;-65
2022/06/15 05:09:41;;;;;;;7.13;6.53;;;18.40;99.90;;;;;;4981512;28;20195;-65
2022/06/15 05:12:07;;;;;;;6.40;5.90;;;18.50;99.90;;;;;;4976526;28;20180;-65
2022/06/15 05:14:32;;;;;;;5.97;5.47;;;18.70;99.90;;;;;;4980380;28;20208;-65
2022/06/15 05:16:58;;;;;;;5.97;5.47;;;18.90;99.90;;;;;;4984408;28;20250;-66
2022/06/15 05:19:23;;;;;;;6.80;6.13;;;19.10;99.90;;;;;;4981415;28;20215;-65
2022/06/15 05:21:49;;;;;;;6.27;5.67;;;19.30;99.90;;;;;;4975342;28;20195;-65
2022/06/15 05:24:14;;;;;;;7.20;5.40;;;19.50;99.90;;;;;;4974846;28;20199;-65
2022/06/15 05:26:40;;;;;;;5.43;4.93;;;19.70;99.90;;;;;;4981864;28;20191;-65
2022/06/15 05:29:06;;;;;;;6.37;5.30;;;19.80;99.90;;;;;;4977171;28;20207;-65
2022/06/15 05:31:32;;;;;;;7.47;5.93;;;19.90;99.90;;;;;;4976907;28;20235;-65
2022/06/15 05:33:58;;;;;;;5.30;4.83;;;20.00;99.90;;;;;;4982225;28;20462;-66
2022/06/15 05:36:31;;;;;;;6.67;5.37;;;20.10;99.90;;;;;;4984986;28;20176;-65
2022/06/15 05:38:57;;;;;;;9.20;5.60;;;20.30;99.90;;;;;;4972123;28;20186;-65
2022/06/15 05:41:23;;;;;;;8.33;5.27;;;20.40;99.90;;;;;;4978093;28;20440;-65
2022/06/15 05:43:52;;;;;;;7.03;4.63;;;20.50;99.90;;;;;;4975851;28;20745;-65
2022/06/15 05:46:30;;;;;;;5.70;5.20;;;20.60;99.90;;;;;;4979169;28;20646;-65
2022/06/15 05:48:59;;;;;;;6.43;5.83;;;20.70;99.90;;;;;;4978380;28;20469;-65
2022/06/15 05:51:26;;;;;;;5.50;5.00;;;20.80;99.90;;;;;;4980659;28;20443;-65
2022/06/15 05:53:51;;;;;;;5.37;4.60;;;21.00;99.90;;;;;;4970471;28;20872;-66
2022/06/15 05:56:17;;;;;;;7.57;6.90;;;21.00;99.90;;;;;;4971527;28;21321;-65
2022/06/15 05:58:43;;;;;;;6.53;4.97;;;21.20;99.90;;;;;;4970562;28;20191;-65
2022/06/15 06:01:11;;;;;;;7.00;5.40;;;21.40;99.90;;;;;;4978151;28;20446;-65
2022/06/15 06:03:37;;;;;;;8.80;4.20;;;21.50;99.90;;;;;;4969797;28;20266;-67
2022/06/15 06:06:03;;;;;;;7.23;4.83;;;21.60;99.90;;;;;;4961956;28;20447;-66
2022/06/15 06:08:30;;;;;;;8.87;5.90;;;21.10;99.90;;;;;;4965784;28;20191;-66
2022/06/15 06:10:55;;;;;;;6.57;5.80;;;21.20;99.90;;;;;;4967702;28;20451;-66
2022/06/15 06:13:21;;;;;;;5.00;4.60;;;21.20;99.90;;;;;;4967331;28;20471;-66
2022/06/15 06:15:46;;;;;;;10.03;6.33;;;21.10;99.90;;;;;;4967831;28;20215;-66
2022/06/15 06:18:11;;;;;;;6.80;5.10;;;21.10;99.90;;;;;;4968106;28;20196;-67
2022/06/15 06:20:37;;;;;;;6.93;5.13;;;21.30;99.90;;;;;;4968594;28;20279;-67
2022/06/15 06:23:03;;;;;;;7.10;4.47;;;21.50;99.90;;;;;;4977890;28;20212;-69
2022/06/15 06:25:29;;;;;;;7.43;5.60;;;21.80;99.90;;;;;;4971452;28;20180;-69
2022/06/15 06:27:54;;;;;;;5.87;5.33;;;21.80;99.90;;;;;;4971235;28;20184;-68
2022/06/15 06:30:21;;;;;;;5.60;4.90;;;21.70;99.90;;;;;;4972977;28;20773;-69
2022/06/15 06:32:48;;;;;;;5.23;4.80;;;21.60;99.90;;;;;;4972013;28;20693;-69
2022/06/15 06:35:14;;;;;;;5.43;4.63;;;21.50;99.90;;;;;;4973030;28;20427;-68
2022/06/15 06:37:40;;;;;;;6.93;5.40;;;21.50;99.90;;;;;;4963727;28;20481;-68
2022/06/15 06:40:06;;;;;;;5.37;5.00;;;21.40;99.90;;;;;;4971962;28;20184;-69
2022/06/15 06:42:32;;;;;;;5.87;5.27;;;21.60;99.90;;;;;;4972852;28;20469;-71
2022/06/15 06:44:57;;;;;;;4.90;4.60;;;21.90;99.90;;;;;;4971246;28;21016;-70
2022/06/15 06:47:23;;;;;;;6.13;4.20;;;22.00;99.90;;;;;;4964914;28;20178;-69
2022/06/15 06:49:48;;;;;;;4.53;4.23;;;22.00;98.30;;;;;;4969757;28;20191;-70
2022/06/15 06:52:14;;;;;;;5.33;4.77;;;22.20;98.00;;;;;;4970048;28;20173;-70
2022/06/15 06:54:39;;;;;;;5.73;5.23;;;22.50;97.60;;;;;;4969856;28;20585;-70
2022/06/15 06:57:05;;;;;;;5.83;4.63;;;22.60;98.50;;;;;;4968719;28;20198;-70
2022/06/15 06:59:31;;;;;;;8.43;7.53;;;22.90;97.70;;;;;;4971670;28;20189;-70
2022/06/15 07:01:56;;;;;;;7.20;6.60;;;22.90;97.40;;;;;;4970293;28;20604;-70
2022/06/15 07:04:22;;;;;;;7.20;5.33;;;22.90;98.10;;;;;;4969062;28;20204;-70
2022/06/15 07:06:47;;;;;;;5.00;4.60;;;22.90;98.00;;;;;;4972207;28;20239;-70
2022/06/15 07:09:14;;;;;;;9.27;5.23;;;23.10;97.70;;;;;;4969548;28;20236;-70
2022/06/15 07:11:44;;;;;;;5.13;4.63;;;23.20;97.90;;;;;;4971394;28;20257;-69
2022/06/15 07:14:09;;;;;;;6.93;4.77;;;23.30;97.40;;;;;;4970720;28;20529;-70
2022/06/15 07:16:36;;;;;;;5.53;4.77;;;23.50;97.10;;;;;;4968312;28;20443;-70
2022/06/15 07:19:02;;;;;;;5.20;4.80;;;23.60;97.70;;;;;;4968312;28;20653;-70
2022/06/15 07:21:28;;;;;;;6.43;5.93;;;24.00;96.70;;;;;;4969481;28;20436;-70
2022/06/15 07:23:55;;;;;;;5.23;4.73;;;24.20;96.60;;;;;;4973126;28;20212;-70
2022/06/15 07:26:25;;;;;;;4.77;4.27;;;24.30;96.20;;;;;;4970208;28;20439;-70
2022/06/15 07:28:51;;;;;;;7.03;4.40;;;24.80;94.70;;;;;;4976190;28;20968;-70
2022/06/15 07:31:30;;;;;;;11.73;4.10;;;24.90;93.80;;;;;;4972485;28;20443;-70
2022/06/15 07:33:55;;;;;;;5.17;4.77;;;24.80;93.50;;;;;;4971384;28;20980;-70
2022/06/15 07:36:25;;;;;;;6.43;4.53;;;25.00;93.80;;;;;;4974473;28;20439;-69
2022/06/15 07:38:55;;;;;;;5.43;4.93;;;25.10;93.20;;;;;;4973010;28;20219;-70
2022/06/15 07:41:22;;;;;;;4.80;4.40;;;25.40;93.10;;;;;;4973259;28;20864;-70
2022/06/15 07:43:48;;;;;;;5.07;4.67;;;25.80;92.40;;;;;;4973133;28;21028;-70
2022/06/15 07:46:14;;;;;;;4.93;4.50;;;26.00;92.30;;;;;;4973007;28;20443;-70
2022/06/15 07:51:46;;;;;;;6.10;4.17;;;26.50;90.40;;;;;;4972381;28;20538;-69
2022/06/15 07:54:15;;;;;;;5.27;4.60;;;26.80;89.50;;;;;;4960568;28;20474;-69
2022/06/15 07:56:41;;;;;;;7.50;5.60;;;26.80;87.60;;;;;;4972809;28;20440;-69
2022/06/15 07:59:07;;;;;;;4.90;4.50;;;27.00;85.60;;;;;;4978616;28;20451;-69
2022/06/15 08:01:33;;;;;;;5.67;5.07;;;27.20;85.90;;;;;;4980086;28;20466;-70
2022/06/15 08:03:58;;;;;;;6.47;4.93;;;27.30;84.60;;;;;;4973322;28;20462;-69
2022/06/15 08:06:25;;;;;;;8.33;4.70;;;27.50;82.80;;;;;;4972989;28;20200;-70
2022/06/15 08:08:51;;;;;;;6.10;4.30;;;27.60;81.50;;;;;;4972708;28;20279;-70
2022/06/15 08:11:17;;;;;;;5.67;5.17;;;27.70;82.00;;;;;;4972203;28;20431;-69
2022/06/15 08:13:43;;;;;;;7.87;7.03;;;27.90;80.60;;;;;;4972662;28;20830;-70
2022/06/15 08:16:10;;;;;;;5.30;4.80;;;27.80;80.30;;;;;;4969576;28;20612;-70
2022/06/15 08:18:42;;;;;;;5.40;5.00;;;27.70;79.60;;;;;;4972456;28;20542;-70
2022/06/15 08:21:15;;;;;;;7.30;4.90;;;27.50;81.10;;;;;;4968894;28;20452;-70
2022/06/15 08:23:43;;;;;;;4.43;4.00;;;27.90;79.70;;;;;;4970055;28;21016;-70
2022/06/15 08:26:13;;;;;;;4.70;4.30;;;28.20;78.90;;;;;;4971425;28;20447;-70
2022/06/15 08:28:43;;;;;;;5.10;4.67;;;28.40;78.10;;;;;;4971287;28;20427;-70
2022/06/15 08:31:09;;;;;;;7.63;6.80;;;28.60;76.90;;;;;;4974070;28;20522;-70
2022/06/15 08:33:34;;;;;;;5.53;5.13;;;28.80;77.20;;;;;;4974010;28;20467;-70
2022/06/15 08:36:00;;;;;;;6.50;5.33;;;29.10;75.20;;;;;;4970418;28;20195;-70
2022/06/15 08:38:27;;;;;;;6.07;5.47;;;28.60;75.10;;;;;;4971549;28;20188;-70
2022/06/15 08:41:00;;;;;;;5.57;4.73;;;28.10;75.90;;;;;;4972445;28;20195;-69
2022/06/15 08:43:52;;;;;;;5.57;5.07;;;27.80;76.90;;;;;;4973632;28;20471;-70
2022/06/15 08:46:32;;;;;;;5.50;5.00;;;27.50;77.40;;;;;;4972304;28;20452;-70
2022/06/15 08:49:00;;;;;;;7.27;4.33;;;27.90;79.20;;;;;;4970755;28;21238;-70
2022/06/15 08:51:36;;;;;;;5.30;4.87;;;28.70;77.00;;;;;;4969232;28;20427;-70
2022/06/15 08:54:17;;;;;;;5.80;4.90;;;29.20;74.80;;;;;;4970586;28;20481;-70
2022/06/15 08:56:48;;;;;;;6.80;5.20;;;29.50;73.50;;;;;;4971927;28;20446;-70
2022/06/15 08:59:49;;;;;;;8.53;7.83;;;29.90;72.00;;;;;;4970345;28;20448;-70
2022/06/15 09:02:29;;;;;;;5.70;5.17;;;30.00;70.50;;;;;;4972358;28;20463;-70
2022/06/15 09:05:30;;;;;;;6.53;5.63;;;30.20;70.60;;;;;;4972660;28;20554;-70
2022/06/15 09:07:55;;;;;;;5.40;5.00;;;30.40;69.20;;;;;;4964218;28;20443;-70
2022/06/15 09:10:30;;;;;;;5.63;5.13;;;30.40;68.40;;;;;;4971701;28;20463;-70
2022/06/15 09:13:17;;;;;;;5.43;5.00;;;30.50;68.60;;;;;;4971704;28;20210;-70
2022/06/15 09:15:52;;;;;;;5.57;5.17;;;30.70;67.60;;;;;;4970695;28;20442;-70
2022/06/15 09:18:23;;;;;;;8.47;6.50;;;31.00;66.90;;;;;;4971139;28;20435;-70
2022/06/15 09:21:05;;;;;;;5.20;4.50;;;30.90;65.80;;;;;;4972503;28;20490;-70
2022/06/15 09:23:49;;;;;;;5.60;5.20;;;30.40;66.20;;;;;;4970076;28;20522;-70
2022/06/15 09:26:24;;;;;;;6.20;4.63;;;30.40;67.10;;;;;;4969792;28;20436;-70
2022/06/15 09:28:59;;;;;;;4.83;4.53;;;30.80;67.20;;;;;;4971018;28;21008;-70
2022/06/15 09:31:30;;;;;;;4.87;4.50;;;31.10;65.80;;;;;;4970553;28;20442;-70
2022/06/15 09:34:00;;;;;;;5.47;5.07;;;31.50;65.00;;;;;;4971474;28;20489;-70
2022/06/15 09:36:42;;;;;;;5.00;4.60;;;31.80;63.40;;;;;;4973136;28;20817;-71
2022/06/15 09:39:08;;;;;;;7.67;6.90;;;32.10;63.50;;;;;;4969181;28;20530;-71
2022/06/15 09:41:36;;;;;;;5.80;5.03;;;32.40;61.80;;;;;;4970195;28;21236;-71
2022/06/15 09:44:23;;;;;;;5.53;5.13;;;32.60;61.60;;;;;;4973534;28;20685;-69
2022/06/15 09:46:59;;;;;;;5.57;4.97;;;33.10;59.80;;;;;;4970236;28;20459;-70
2022/06/15 09:49:28;;;;;;;5.03;4.50;;;33.10;59.40;;;;;;4968541;28;20450;-70
2022/06/15 09:52:42;;;;;;;4.60;4.30;;;33.10;59.60;;;;;;4970151;28;20992;-70
2022/06/15 09:55:27;;;;;;;6.20;5.60;;;33.20;58.40;;;;;;4945889;28;20462;-71
2022/06/15 09:57:54;;;;;;;5.10;4.70;;;34.10;57.00;;;;;;4968145;28;20530;-70
2022/06/15 10:00:19;;;;;;;5.77;5.37;;;34.20;56.00;;;;;;4970812;28;20494;-70
2022/06/15 10:02:53;;;;;;;4.63;4.33;;;35.00;54.70;;;;;;4975461;28;21058;-70
2022/06/15 10:05:34;;;;;;;5.50;5.00;;;35.40;54.30;;;;;;4979323;28;20184;-70
2022/06/15 10:08:05;;;;;;;4.90;4.50;;;35.40;52.70;;;;;;4976131;28;20446;-70
2022/06/15 10:10:40;;;;;;;5.23;4.83;;;35.40;52.00;;;;;;4973923;28;20431;-70
2022/06/15 10:13:17;;;;;;;6.53;5.00;;;35.40;51.50;;;;;;4969648;28;20984;-71
2022/06/15 10:15:42;;;;;;;4.67;4.37;;;35.20;51.60;;;;;;4971344;28;20788;-70
2022/06/15 10:18:51;;;;;;;7.53;5.40;;;35.80;50.10;;;;;;4970407;28;20431;-71
2022/06/15 10:21:23;;;;;;;6.13;4.53;;;36.90;49.20;;;;;;4970717;28;20226;-71
2022/06/15 10:23:54;;;;;;;5.93;4.60;;;37.20;47.50;;;;;;4971215;28;20558;-70
2022/06/15 10:26:32;;;;;;;4.60;4.20;;;37.40;47.30;;;;;;4970680;28;20807;-71
2022/06/15 10:29:04;;;;;;;5.03;4.53;;;38.00;45.80;;;;;;4969296;28;20431;-70
2022/06/15 10:31:34;;;;;;;6.00;4.93;;;38.30;44.60;;;;;;4967955;28;20519;-71
2022/06/15 10:34:25;;;;;;;5.90;5.40;;;38.90;44.00;;;;;;4974254;28;20487;-71
2022/06/15 10:36:57;;;;;;;5.80;5.40;;;39.80;42.40;;;;;;4969653;28;20494;-68
2022/06/15 10:39:28;;;;;;;5.30;4.80;;;40.20;41.90;;;;;;4968750;28;20442;-64
2022/06/15 10:42:10;;;;;;;5.10;4.63;;;40.90;40.80;;;;;;4969096;28;20479;-64
2022/06/15 10:44:52;;;;;;;5.17;4.70;;;40.60;39.90;;;;;;4968459;28;20459;-65
2022/06/15 10:47:38;;;;;;;4.90;4.60;;;40.60;40.00;;;;;;4970624;28;20471;-64
2022/06/15 10:50:16;;;;;;;5.73;5.23;;;40.60;38.30;;;;;;4967798;28;20544;-64
2022/06/15 10:52:50;;;;;;;5.17;4.63;;;42.10;37.40;;;;;;4969124;28;20443;-64
2022/06/15 11:04:09;;;;;;;5.97;5.57;;;45.60;32.60;;;;;;4934222;28;20509;-64
2022/06/15 11:06:38;;;;;;;5.10;4.60;;;45.70;31.70;;;;;;4981720;28;20945;-64
2022/06/15 11:09:06;;;;;;;4.50;4.20;;;44.70;31.40;;;;;;4980964;28;20455;-64
2022/06/15 11:11:34;;;;;;;4.90;4.50;;;45.30;31.40;;;;;;4972044;28;20498;-64
2022/06/15 11:14:15;;;;;;;5.20;4.80;;;44.90;30.90;;;;;;4986101;28;20442;-64
2022/06/15 11:19:27;;;;;;;5.57;5.17;;;44.40;31.30;;;;;;4973963;28;20454;-64
2022/06/15 11:22:08;;;;;;;5.07;3.83;;;45.70;30.40;;;;;;4982707;28;20439;-64
2022/06/15 11:24:58;;;;;;;4.10;3.80;;;45.80;29.70;;;;;;4977427;28;20545;-64
2022/06/15 11:27:34;;;;;;;4.17;3.87;;;44.00;29.70;;;;;;4974484;28;21012;-63
2022/06/15 11:30:22;;;;;;;5.70;5.20;;;44.60;29.40;;;;;;4972961;28;20434;-63
2022/06/15 11:32:59;;;;;;;4.70;4.30;;;45.00;29.30;;;;;;4972411;28;20451;-64
2022/06/15 11:35:31;;;;;;;5.10;4.80;;;44.10;29.50;;;;;;4973458;28;20918;-64
2022/06/15 11:38:14;;;;;;;5.33;4.93;;;43.30;29.50;;;;;;4973938;28;20439;-64
2022/06/15 11:40:57;;;;;;;6.53;4.70;;;43.00;29.60;;;;;;4973026;28;20424;-64
2022/06/15 11:43:33;;;;;;;4.53;4.13;;;43.00;29.50;;;;;;4974132;28;20545;-64
2022/06/15 11:46:11;;;;;;;5.10;4.67;;;43.40;29.40;;;;;;4976924;28;20434;-64
2022/06/15 11:48:56;;;;;;;5.53;4.20;;;43.70;29.40;;;;;;4970404;28;20454;-64
2022/06/15 11:51:27;;;;;;;4.80;4.40;;;43.70;28.80;;;;;;4970110;28;20788;-64
2022/06/15 11:54:25;;;;;;;4.40;4.10;;;44.40;28.70;;;;;;4972629;28;20505;-64
2022/06/15 11:57:03;;;;;;;4.67;4.10;;;44.60;28.60;;;;;;4970834;28;20435;-64
2022/06/15 12:00:07;;;;;;;4.37;4.17;;;44.80;28.60;;;;;;4973019;28;20525;-64
2022/06/15 12:02:47;;;;;;;4.57;4.23;;;44.40;28.70;;;;;;4975243;28;20550;-64
2022/06/15 12:05:25;;;;;;;4.20;3.90;;;43.90;28.10;;;;;;4974735;28;20440;-64
2022/06/15 12:08:10;;;;;;;4.10;3.80;;;44.50;28.70;;;;;;4971592;28;20450;-64
2022/06/15 12:10:51;;;;;;;5.30;4.90;;;45.30;28.40;;;;;;4972371;28;20443;-64
2022/06/15 12:13:26;;;;;;;6.10;4.57;;;45.30;28.40;;;;;;4970949;28;20467;-64
2022/06/15 12:16:03;;;;;;;5.43;4.67;;;45.00;28.20;;;;;;4973407;28;20987;-64
2022/06/15 12:18:49;;;;;;;4.50;4.20;;;44.60;28.10;;;;;;4971069;28;20651;-64
2022/06/15 12:21:39;;;;;;;6.83;4.33;;;45.00;28.60;;;;;;4972610;28;20455;-64
2022/06/15 12:24:27;;;;;;;5.90;4.23;;;45.00;28.20;;;;;;4969695;28;20554;-64
2022/06/15 12:27:02;;;;;;;4.43;4.13;;;45.50;28.00;;;;;;4969517;28;20427;-64
2022/06/15 12:29:37;;;;;;;4.37;3.97;;;46.40;27.30;;;;;;4968819;28;20873;-64
2022/06/15 12:32:42;;;;;;;5.13;4.80;;;48.10;27.10;;;;;;4975765;28;20481;-64
2022/06/15 12:35:38;;;;;;;4.87;4.57;;;48.30;26.70;;;;;;4977764;28;20517;-64
2022/06/15 12:38:13;;;;;;;5.47;4.93;;;48.80;26.00;;;;;;4971345;28;20766;-64
2022/06/15 12:40:49;;;;;;;5.30;4.80;;;49.30;25.90;;;;;;4973190;28;20430;-64
2022/06/15 12:43:38;;;;;;;4.40;4.10;;;49.90;25.80;;;;;;4973524;28;21003;-64
2022/06/15 12:46:16;;;;;;;4.53;4.23;;;48.60;25.90;;;;;;4971764;28;20431;-64
2022/06/15 12:48:44;;;;;;;4.27;3.87;;;48.30;26.20;;;;;;4971600;28;20435;-64
2022/06/15 12:51:39;;;;;;;4.70;4.33;;;48.90;26.10;;;;;;4973052;28;20435;-64
2022/06/15 12:54:10;;;;;;;4.60;4.20;;;49.30;26.20;;;;;;4964332;28;20479;-64
2022/06/15 12:56:47;;;;;;;5.13;4.83;;;48.70;25.90;;;;;;4971192;28;20486;-64
2022/06/15 12:59:27;;;;;;;5.50;5.10;;;49.10;25.60;;;;;;4975487;28;20570;-64
2022/06/15 13:02:20;;;;;;;5.20;4.90;;;50.50;25.30;;;;;;4974823;28;20439;-64
2022/06/15 13:05:09;;;;;;;5.47;5.07;;;51.20;24.90;;;;;;4974934;28;20542;-64
2022/06/15 13:07:38;;;;;;;5.03;4.83;;;50.30;24.70;;;;;;4971966;28;20427;-64
2022/06/15 13:10:09;;;;;;;7.83;5.57;;;49.70;25.00;;;;;;4967233;28;20447;-64
2022/06/15 13:12:40;;;;;;;4.20;4.00;;;50.50;24.90;;;;;;4981427;28;20438;-64
2022/06/15 13:15:16;;;;;;;4.50;4.30;;;51.00;24.80;;;;;;4970121;28;20444;-64
2022/06/15 13:18:06;;;;;;;4.70;4.50;;;50.10;24.60;;;;;;4975631;28;20442;-64
2022/06/15 13:20:34;;;;;;;4.43;4.03;;;47.60;25.00;;;;;;4974685;28;20491;-64
2022/06/15 13:22:59;;;;;;;9.70;4.63;;;47.20;25.60;;;;;;4979210;28;20471;-64
2022/06/15 13:25:26;;;;;;;4.90;4.40;;;46.20;26.00;;;;;;4972321;28;20439;-64
2022/06/15 13:27:54;;;;;;;4.23;3.83;;;44.90;26.00;;;;;;4977012;28;20187;-64
2022/06/15 13:30:19;;;;;;;4.27;3.97;;;43.30;26.80;;;;;;4976797;28;20443;-64